Euro Snow — VQGH9 — position and weather

sailwx.info

Track history (hours):
 
Tides and Currents Weather Stations Pressure Air Temp Water Temp Dewpoint Dewpoint Depression Visibility Wind Speed Wind Dir Waves Ship Positions

Euro Snow

Last reported at 2015-Aug-04 21:26 UTC. Time now 2015-Aug-05 12:29 UTC.
Position N 40°26' W 009°09'.

Length 133 m; draft 6.5 m.

Type: Cargo ship. MMSI: 235613000.

Date/timePositionNaut miles runAvg speedWind from/ knotsBaromVisibWave heightAir tempDewpointWater temp
2015-Aug-04 21:26N 40°26' W 009°09'1315.5
2015-Aug-04 20:33N 40°14' W 009°16'3315.1
2015-Aug-04 18:23N 39°44' W 009°34'1515.0
2015-Aug-04 17:25N 39°30' W 009°42'1314.9
2015-Aug-04 16:33N 39°18' W 009°43'1615.6
2015-Aug-04 15:33N 39°02' W 009°42'1515.5
2015-Aug-04 14:33N 38°47' W 009°42'1211.8
2015-Aug-04 13:34N 38°38' W 009°31'1414.0
2015-Aug-04 12:33N 38°41' W 009°14'6 6.2
2015-Aug-04 11:33N 38°44' W 009°06'0 0.0
2015-Aug-04 10:33N 38°44' W 009°06'0 0.0
2015-Aug-04 09:33N 38°44' W 009°06'0 0.0
2015-Aug-04 08:33N 38°44' W 009°06'0 0.0
2015-Aug-04 07:32N 38°44' W 009°06'0 0.0
2015-Aug-04 06:32N 38°44' W 009°06'0 0.0
2015-Aug-04 05:33N 38°44' W 009°06'0 0.0
2015-Aug-04 04:33N 38°44' W 009°06'0 0.0
2015-Aug-04 03:33N 38°44' W 009°06'0 0.0
2015-Aug-04 02:32N 38°44' W 009°06'0 0.0
2015-Aug-04 01:31N 38°44' W 009°06'0 0.0
2015-Aug-04 00:31N 38°44' W 009°06'0 0.0
2015-Aug-03 23:31N 38°44' W 009°06'0 0.0
2015-Aug-03 22:31N 38°44' W 009°06'0 0.0
2015-Aug-03 21:33N 38°44' W 009°06'0 0.0
2015-Aug-03 20:31N 38°44' W 009°06'0 0.0
2015-Aug-03 19:34N 38°44' W 009°06'0 0.0
2015-Aug-03 18:33N 38°44' W 009°06'6 6.4
2015-Aug-03 17:33N 38°41' W 009°14'1514.6
2015-Aug-03 16:33N 38°38' W 009°32'1313.3
2015-Aug-03 15:33N 38°47' W 009°44'1515.2
2015-Aug-03 14:33N 39°02' W 009°45'1615.4
2015-Aug-03 13:33N 39°18' W 009°47'1815.3
2015-Aug-03 12:21N 39°36' W 009°48'1316.0
2015-Aug-03 11:31N 39°50' W 009°49'43915.0
2015-Aug-02 06:17N 46°55' W 007°20'1215.5
2015-Aug-02 05:29N 47°06' W 007°12'2915.2
2015-Aug-02 03:33N 47°32' W 006°50'6014.9
2015-Aug-01 23:33N 48°25' W 006°09'2417.6
2015-Aug-01 22:10N 48°46' W 005°51'4516.3
2015-Aug-01 19:23N 49°12' W 004°54'10715.5
2015-Aug-01 12:29N 50°02' W 002°28'8614.3
2015-Aug-01 06:30N 50°26' W 000°20'3317.0
2015-Aug-01 04:33N 50°35' E 000°30'1717.4
2015-Aug-01 03:33N 50°44' E 000°53'1616.2
2015-Aug-01 02:33N 50°54' E 001°14'1414.3
2015-Aug-01 01:33N 51°04' E 001°30'1312.8
2015-Aug-01 00:33N 51°13' E 001°45'1413.9
2015-Jul-31 23:33N 51°24' E 001°58'1615.8
2015-Jul-31 22:33N 51°36' E 002°14'4217.1
2015-Jul-31 20:05N 52°01' E 003°08'1217.3
2015-Jul-31 19:25N 52°03' E 003°27'1416.7
2015-Jul-31 18:33N 52°04' E 003°51'9 8.6
2015-Jul-31 17:32N 51°58' E 004°02'0 0.0
2015-Jul-31 16:33N 51°58' E 004°02'0 0.0
2015-Jul-31 15:31N 51°58' E 004°02'0 0.0
2015-Jul-31 14:31N 51°58' E 004°02'0 0.0
2015-Jul-31 13:32N 51°58' E 004°02'0 0.0
2015-Jul-31 12:32N 51°58' E 004°02'0 0.0
2015-Jul-31 11:31N 51°58' E 004°02'0 0.0
2015-Jul-31 10:32N 51°58' E 004°02'0 0.0
2015-Jul-31 09:31N 51°58' E 004°02'0 0.0
2015-Jul-31 08:31N 51°58' E 004°02'0 0.0
2015-Jul-31 07:31N 51°58' E 004°02'0 0.0
2015-Jul-31 06:31N 51°58' E 004°02'0 0.0
2015-Jul-31 05:31N 51°58' E 004°02'0 0.0
2015-Jul-31 04:31N 51°58' E 004°02'2 1.9
2015-Jul-31 03:33N 51°58' E 004°05'1313.4
2015-Jul-31 02:33N 52°06' E 003°47'1313.2
2015-Jul-31 01:33N 52°19' E 003°48'1212.3
2015-Jul-31 00:33N 52°31' E 003°52'1313.4
2015-Jul-30 23:33N 52°44' E 003°55'1413.9
2015-Jul-30 22:33N 52°58' E 004°02'1414.1
2015-Jul-30 21:33N 53°07' E 004°20'1414.2
2015-Jul-30 20:33N 53°20' E 004°30'1413.9
2015-Jul-30 19:33N 53°33' E 004°38'1413.7
2015-Jul-30 18:33N 53°46' E 004°47'1413.9
2015-Jul-30 17:33N 53°58' E 004°56'1313.3
2015-Jul-30 16:33N 54°10' E 005°06'8613.5
2015-Jul-30 10:10N 55°24' E 006°24'813.7
2015-Jul-30 09:33N 55°31' E 006°33'17913.7
2015-Jul-29 20:27N 57°44' E 010°11'1213.8
2015-Jul-29 19:34N 57°47' E 010°33'1413.8
2015-Jul-29 18:34N 57°45' E 010°59'1515.0
2015-Jul-29 17:33N 57°39' E 011°25'1312.9
2015-Jul-29 16:33N 57°41' E 011°49'1 1.1
2015-Jul-29 15:32N 57°41' E 011°51'0 0.0
2015-Jul-29 14:32N 57°41' E 011°51'0 0.0
2015-Jul-29 13:32N 57°41' E 011°51'0 0.0
2015-Jul-29 12:32N 57°41' E 011°51'0 0.0
2015-Jul-29 11:32N 57°41' E 011°51'0 0.0
2015-Jul-29 10:32N 57°41' E 011°51'0 0.0
2015-Jul-29 09:32N 57°41' E 011°51'0 0.0
2015-Jul-29 08:33N 57°41' E 011°51'0 0.0
2015-Jul-29 07:33N 57°41' E 011°51'0 0.0
2015-Jul-29 06:32N 57°41' E 011°51'0 0.0
2015-Jul-29 05:33N 57°41' E 011°51'0 0.0
2015-Jul-29 04:31N 57°41' E 011°51'7 7.8
2015-Jul-29 03:33N 57°37' E 011°40'1514.8
2015-Jul-29 02:33N 57°22' E 011°39'1313.0
2015-Jul-29 01:33N 57°09' E 011°40'1312.6
2015-Jul-29 00:33N 56°56' E 011°47'1212.4
2015-Jul-28 23:33N 56°45' E 011°54'5612.6
2015-Jul-28 19:04N 56°03' E 010°44'612.6
2015-Jul-28 18:33N 56°05' E 010°33'1211.5
2015-Jul-28 17:34N 56°09' E 010°14'0 0.0
2015-Jul-28 16:33N 56°09' E 010°14'0 0.0
2015-Jul-28 15:33N 56°09' E 010°14'0 0.0
2015-Jul-28 14:33N 56°09' E 010°14'0 0.0
2015-Jul-28 13:33N 56°09' E 010°14'0 0.0
2015-Jul-28 12:33N 56°09' E 010°14'0 0.0
2015-Jul-28 11:33N 56°09' E 010°14'0 0.0
2015-Jul-28 10:33N 56°09' E 010°14'0 0.0
2015-Jul-28 09:31N 56°09' E 010°14'0 0.0
2015-Jul-28 08:31N 56°09' E 010°14'0 0.0
2015-Jul-28 07:31N 56°09' E 010°14'0 0.0
2015-Jul-28 06:31N 56°09' E 010°14'0 0.0
2015-Jul-28 05:32N 56°09' E 010°14'3 2.7
2015-Jul-28 04:33N 56°09' E 010°19'5610.8
2015-Jul-27 23:20N 57°03' E 010°49'1113.9
2015-Jul-27 22:33N 57°13' E 010°44'1414.4
2015-Jul-27 21:33N 57°27' E 010°43'1514.9
2015-Jul-27 20:33N 57°42' E 010°44'39515.2
2015-Jul-26 18:30N 54°58' W 000°04'1515.5
2015-Jul-26 17:32N 54°52' W 000°27'1615.6
2015-Jul-26 16:30N 54°45' W 000°53'13 1.0
2015-Jul-26 04:14N 54°37' W 001°09'7 9.6
2015-Jul-26 03:33N 54°38' W 000°59'1616.1
2015-Jul-26 02:33N 54°33' W 000°33'1615.9
2015-Jul-26 01:33N 54°21' W 000°14'1515.5
2015-Jul-26 00:33N 54°10' E 000°04'1515.1
2015-Jul-25 23:33N 53°58' E 000°21'1514.8
2015-Jul-25 22:33N 53°47' E 000°38'  
Track history (hours):
 
Tides and Currents Weather Stations Pressure Air Temp Water Temp Dewpoint Dewpoint Depression Visibility Wind Speed Wind Dir Waves Ship Positions

Euro Snow

Last reported at 2015-Aug-04 21:26 UTC. Time now 2015-Aug-05 12:29 UTC.
Position N 40°26' W 009°09'.

Length 133 m; draft 6.5 m.

Type: Cargo ship. MMSI: 235613000.

Date/timePositionNaut miles runAvg speedWind from/ knotsBaromVisibWave heightAir tempDewpointWater temp
2015-Aug-04 21:26N 40°26' W 009°09'1315.5
2015-Aug-04 20:33N 40°14' W 009°16'3315.1
2015-Aug-04 18:23N 39°44' W 009°34'1515.0
2015-Aug-04 17:25N 39°30' W 009°42'1314.9
2015-Aug-04 16:33N 39°18' W 009°43'1615.6
2015-Aug-04 15:33N 39°02' W 009°42'1515.5
2015-Aug-04 14:33N 38°47' W 009°42'1211.8
2015-Aug-04 13:34N 38°38' W 009°31'1414.0
2015-Aug-04 12:33N 38°41' W 009°14'6 6.2
2015-Aug-04 11:33N 38°44' W 009°06'0 0.0
2015-Aug-04 10:33N 38°44' W 009°06'0 0.0
2015-Aug-04 09:33N 38°44' W 009°06'0 0.0
2015-Aug-04 08:33N 38°44' W 009°06'0 0.0
2015-Aug-04 07:32N 38°44' W 009°06'0 0.0
2015-Aug-04 06:32N 38°44' W 009°06'0 0.0
2015-Aug-04 05:33N 38°44' W 009°06'0 0.0
2015-Aug-04 04:33N 38°44' W 009°06'0 0.0
2015-Aug-04 03:33N 38°44' W 009°06'0 0.0
2015-Aug-04 02:32N 38°44' W 009°06'0 0.0
2015-Aug-04 01:31N 38°44' W 009°06'0 0.0
2015-Aug-04 00:31N 38°44' W 009°06'0 0.0
2015-Aug-03 23:31N 38°44' W 009°06'0 0.0
2015-Aug-03 22:31N 38°44' W 009°06'0 0.0
2015-Aug-03 21:33N 38°44' W 009°06'0 0.0
2015-Aug-03 20:31N 38°44' W 009°06'0 0.0
2015-Aug-03 19:34N 38°44' W 009°06'0 0.0
2015-Aug-03 18:33N 38°44' W 009°06'6 6.4
2015-Aug-03 17:33N 38°41' W 009°14'1514.6
2015-Aug-03 16:33N 38°38' W 009°32'1313.3
2015-Aug-03 15:33N 38°47' W 009°44'1515.2
2015-Aug-03 14:33N 39°02' W 009°45'1615.4
2015-Aug-03 13:33N 39°18' W 009°47'1815.3
2015-Aug-03 12:21N 39°36' W 009°48'1316.0
2015-Aug-03 11:31N 39°50' W 009°49'43915.0
2015-Aug-02 06:17N 46°55' W 007°20'1215.5
2015-Aug-02 05:29N 47°06' W 007°12'2915.2
2015-Aug-02 03:33N 47°32' W 006°50'6014.9
2015-Aug-01 23:33N 48°25' W 006°09'2417.6
2015-Aug-01 22:10N 48°46' W 005°51'4516.3
2015-Aug-01 19:23N 49°12' W 004°54'10715.5
2015-Aug-01 12:29N 50°02' W 002°28'8614.3
2015-Aug-01 06:30N 50°26' W 000°20'3317.0
2015-Aug-01 04:33N 50°35' E 000°30'1717.4
2015-Aug-01 03:33N 50°44' E 000°53'1616.2
2015-Aug-01 02:33N 50°54' E 001°14'1414.3
2015-Aug-01 01:33N 51°04' E 001°30'1312.8
2015-Aug-01 00:33N 51°13' E 001°45'1413.9
2015-Jul-31 23:33N 51°24' E 001°58'1615.8
2015-Jul-31 22:33N 51°36' E 002°14'4217.1
2015-Jul-31 20:05N 52°01' E 003°08'1217.3
2015-Jul-31 19:25N 52°03' E 003°27'1416.7
2015-Jul-31 18:33N 52°04' E 003°51'9 8.6
2015-Jul-31 17:32N 51°58' E 004°02'0 0.0
2015-Jul-31 16:33N 51°58' E 004°02'0 0.0
2015-Jul-31 15:31N 51°58' E 004°02'0 0.0
2015-Jul-31 14:31N 51°58' E 004°02'0 0.0
2015-Jul-31 13:32N 51°58' E 004°02'0 0.0
2015-Jul-31 12:32N 51°58' E 004°02'0 0.0
2015-Jul-31 11:31N 51°58' E 004°02'0 0.0
2015-Jul-31 10:32N 51°58' E 004°02'0 0.0
2015-Jul-31 09:31N 51°58' E 004°02'0 0.0
2015-Jul-31 08:31N 51°58' E 004°02'0 0.0
2015-Jul-31 07:31N 51°58' E 004°02'0 0.0
2015-Jul-31 06:31N 51°58' E 004°02'0 0.0
2015-Jul-31 05:31N 51°58' E 004°02'0 0.0
2015-Jul-31 04:31N 51°58' E 004°02'2 1.9
2015-Jul-31 03:33N 51°58' E 004°05'1313.4
2015-Jul-31 02:33N 52°06' E 003°47'1313.2
2015-Jul-31 01:33N 52°19' E 003°48'1212.3
2015-Jul-31 00:33N 52°31' E 003°52'1313.4
2015-Jul-30 23:33N 52°44' E 003°55'1413.9
2015-Jul-30 22:33N 52°58' E 004°02'1414.1
2015-Jul-30 21:33N 53°07' E 004°20'1414.2
2015-Jul-30 20:33N 53°20' E 004°30'1413.9
2015-Jul-30 19:33N 53°33' E 004°38'1413.7
2015-Jul-30 18:33N 53°46' E 004°47'1413.9
2015-Jul-30 17:33N 53°58' E 004°56'1313.3
2015-Jul-30 16:33N 54°10' E 005°06'8613.5
2015-Jul-30 10:10N 55°24' E 006°24'813.7
2015-Jul-30 09:33N 55°31' E 006°33'17913.7
2015-Jul-29 20:27N 57°44' E 010°11'1213.8
2015-Jul-29 19:34N 57°47' E 010°33'1413.8
2015-Jul-29 18:34N 57°45' E 010°59'1515.0
2015-Jul-29 17:33N 57°39' E 011°25'1312.9
2015-Jul-29 16:33N 57°41' E 011°49'1 1.1
2015-Jul-29 15:32N 57°41' E 011°51'0 0.0
2015-Jul-29 14:32N 57°41' E 011°51'0 0.0
2015-Jul-29 13:32N 57°41' E 011°51'0 0.0
2015-Jul-29 12:32N 57°41' E 011°51'0 0.0
2015-Jul-29 11:32N 57°41' E 011°51'0 0.0
2015-Jul-29 10:32N 57°41' E 011°51'0 0.0
2015-Jul-29 09:32N 57°41' E 011°51'0 0.0
2015-Jul-29 08:33N 57°41' E 011°51'0 0.0
2015-Jul-29 07:33N 57°41' E 011°51'0 0.0
2015-Jul-29 06:32N 57°41' E 011°51'0 0.0
2015-Jul-29 05:33N 57°41' E 011°51'0 0.0
2015-Jul-29 04:31N 57°41' E 011°51'7 7.8
2015-Jul-29 03:33N 57°37' E 011°40'1514.8
2015-Jul-29 02:33N 57°22' E 011°39'1313.0
2015-Jul-29 01:33N 57°09' E 011°40'1312.6
2015-Jul-29 00:33N 56°56' E 011°47'1212.4
2015-Jul-28 23:33N 56°45' E 011°54'5612.6
2015-Jul-28 19:04N 56°03' E 010°44'612.6
2015-Jul-28 18:33N 56°05' E 010°33'1211.5
2015-Jul-28 17:34N 56°09' E 010°14'0 0.0
2015-Jul-28 16:33N 56°09' E 010°14'0 0.0
2015-Jul-28 15:33N 56°09' E 010°14'0 0.0
2015-Jul-28 14:33N 56°09' E 010°14'0 0.0
2015-Jul-28 13:33N 56°09' E 010°14'0 0.0
2015-Jul-28 12:33N 56°09' E 010°14'0 0.0
2015-Jul-28 11:33N 56°09' E 010°14'0 0.0
2015-Jul-28 10:33N 56°09' E 010°14'0 0.0
2015-Jul-28 09:31N 56°09' E 010°14'0 0.0
2015-Jul-28 08:31N 56°09' E 010°14'0 0.0
2015-Jul-28 07:31N 56°09' E 010°14'0 0.0
2015-Jul-28 06:31N 56°09' E 010°14'0 0.0
2015-Jul-28 05:32N 56°09' E 010°14'3 2.7
2015-Jul-28 04:33N 56°09' E 010°19'5610.8
2015-Jul-27 23:20N 57°03' E 010°49'1113.9
2015-Jul-27 22:33N 57°13' E 010°44'1414.4
2015-Jul-27 21:33N 57°27' E 010°43'1514.9
2015-Jul-27 20:33N 57°42' E 010°44'39515.2
2015-Jul-26 18:30N 54°58' W 000°04'1515.5
2015-Jul-26 17:32N 54°52' W 000°27'1615.6
2015-Jul-26 16:30N 54°45' W 000°53'13 1.0
2015-Jul-26 04:14N 54°37' W 001°09'7 9.6
2015-Jul-26 03:33N 54°38' W 000°59'1616.1
2015-Jul-26 02:33N 54°33' W 000°33'1615.9
2015-Jul-26 01:33N 54°21' W 000°14'1515.5
2015-Jul-26 00:33N 54°10' E 000°04'1515.1
2015-Jul-25 23:33N 53°58' E 000°21'1514.8
2015-Jul-25 22:33N 53°47' E 000°38'  

Dump ship's entire track history